sensor_id;sensor_type;location;lat;lon;timestamp;temperature;humidity
65972;SHT31;52726;48.852;9.152;2023-04-01T00:00:18;8.43;79.77
65972;SHT31;52726;48.852;9.152;2023-04-01T00:02:43;8.38;79.81
65972;SHT31;52726;48.852;9.152;2023-04-01T00:05:10;8.40;80.03
65972;SHT31;52726;48.852;9.152;2023-04-01T00:07:39;8.36;80.30
65972;SHT31;52726;48.852;9.152;2023-04-01T00:10:06;8.41;80.12
65972;SHT31;52726;48.852;9.152;2023-04-01T00:12:32;8.43;79.78
65972;SHT31;52726;48.852;9.152;2023-04-01T00:14:58;8.44;80.22
65972;SHT31;52726;48.852;9.152;2023-04-01T00:17:24;8.45;80.04
65972;SHT31;52726;48.852;9.152;2023-04-01T00:19:49;8.48;79.93
65972;SHT31;52726;48.852;9.152;2023-04-01T00:22:14;8.48;79.86
65972;SHT31;52726;48.852;9.152;2023-04-01T00:24:40;8.48;80.43
65972;SHT31;52726;48.852;9.152;2023-04-01T00:27:06;8.50;79.93
65972;SHT31;52726;48.852;9.152;2023-04-01T00:29:33;8.45;80.17
65972;SHT31;52726;48.852;9.152;2023-04-01T00:32:00;8.48;80.03
65972;SHT31;52726;48.852;9.152;2023-04-01T00:34:25;8.52;79.48
65972;SHT31;52726;48.852;9.152;2023-04-01T00:36:51;8.51;79.72
65972;SHT31;52726;48.852;9.152;2023-04-01T00:39:18;8.50;79.85
65972;SHT31;52726;48.852;9.152;2023-04-01T00:41:44;8.45;79.43
65972;SHT31;52726;48.852;9.152;2023-04-01T00:44:23;8.47;79.11
65972;SHT31;52726;48.852;9.152;2023-04-01T00:46:48;8.57;79.11
65972;SHT31;52726;48.852;9.152;2023-04-01T00:49:15;8.58;79.50
65972;SHT31;52726;48.852;9.152;2023-04-01T00:51:43;8.57;79.47
65972;SHT31;52726;48.852;9.152;2023-04-01T00:54:11;8.58;79.83
65972;SHT31;52726;48.852;9.152;2023-04-01T00:56:39;8.60;79.52
65972;SHT31;52726;48.852;9.152;2023-04-01T00:59:11;8.58;79.39
65972;SHT31;52726;48.852;9.152;2023-04-01T01:01:37;8.60;79.76
65972;SHT31;52726;48.852;9.152;2023-04-01T01:04:03;8.60;79.80
65972;SHT31;52726;48.852;9.152;2023-04-01T01:06:52;8.60;79.60
65972;SHT31;52726;48.852;9.152;2023-04-01T01:12:23;8.55;80.24
65972;SHT31;52726;48.852;9.152;2023-04-01T01:20:48;8.58;80.04
65972;SHT31;52726;48.852;9.152;2023-04-01T01:23:32;8.54;80.16
65972;SHT31;52726;48.852;9.152;2023-04-01T01:26:34;8.51;80.26
65972;SHT31;52726;48.852;9.152;2023-04-01T01:31:37;8.55;80.33
65972;SHT31;52726;48.852;9.152;2023-04-01T01:36:45;8.51;80.13
65972;SHT31;52726;48.852;9.152;2023-04-01T01:39:14;8.54;80.18
65972;SHT31;52726;48.852;9.152;2023-04-01T01:41:41;8.54;80.18
65972;SHT31;52726;48.852;9.152;2023-04-01T01:44:11;8.55;80.09
65972;SHT31;52726;48.852;9.152;2023-04-01T01:46:38;8.54;80.31
65972;SHT31;52726;48.852;9.152;2023-04-01T01:49:06;8.51;80.79
65972;SHT31;52726;48.852;9.152;2023-04-01T01:51:32;8.51;81.34
65972;SHT31;52726;48.852;9.152;2023-04-01T01:53:58;8.48;81.57
65972;SHT31;52726;48.852;9.152;2023-04-01T01:56:26;8.45;81.74
65972;SHT31;52726;48.852;9.152;2023-04-01T01:59:03;8.43;81.80
65972;SHT31;52726;48.852;9.152;2023-04-01T02:01:33;8.37;82.32
65972;SHT31;52726;48.852;9.152;2023-04-01T02:04:00;8.38;82.37
65972;SHT31;52726;48.852;9.152;2023-04-01T02:06:28;8.37;82.60
65972;SHT31;52726;48.852;9.152;2023-04-01T02:09:04;8.37;82.48
65972;SHT31;52726;48.852;9.152;2023-04-01T02:11:34;8.36;82.64
65972;SHT31;52726;48.852;9.152;2023-04-01T02:14:05;8.34;82.50
65972;SHT31;52726;48.852;9.152;2023-04-01T02:16:45;8.36;82.17
65972;SHT31;52726;48.852;9.152;2023-04-01T02:19:12;8.36;82.84
65972;SHT31;52726;48.852;9.152;2023-04-01T02:21:39;8.32;83.14
65972;SHT31;52726;48.852;9.152;2023-04-01T02:24:08;8.27;83.19
65972;SHT31;52726;48.852;9.152;2023-04-01T02:26:35;8.23;83.65
65972;SHT31;52726;48.852;9.152;2023-04-01T02:29:01;8.23;83.04
65972;SHT31;52726;48.852;9.152;2023-04-01T02:31:27;8.23;83.11
65972;SHT31;52726;48.852;9.152;2023-04-01T02:33:52;8.24;82.92
65972;SHT31;52726;48.852;9.152;2023-04-01T02:36:24;8.20;82.61
65972;SHT31;52726;48.852;9.152;2023-04-01T02:38:51;8.17;82.68
65972;SHT31;52726;48.852;9.152;2023-04-01T02:41:19;8.17;82.46
65972;SHT31;52726;48.852;9.152;2023-04-01T02:43:45;8.19;82.53
65972;SHT31;52726;48.852;9.152;2023-04-01T02:46:11;8.22;82.19
65972;SHT31;52726;48.852;9.152;2023-04-01T02:48:36;8.17;82.37
65972;SHT31;52726;48.852;9.152;2023-04-01T02:51:33;8.14;82.52
65972;SHT31;52726;48.852;9.152;2023-04-01T02:54:12;8.16;81.53
65972;SHT31;52726;48.852;9.152;2023-04-01T02:56:37;8.16;81.68
65972;SHT31;52726;48.852;9.152;2023-04-01T02:59:02;8.17;81.82
65972;SHT31;52726;48.852;9.152;2023-04-01T03:01:28;8.13;81.87
65972;SHT31;52726;48.852;9.152;2023-04-01T03:03:53;8.17;81.53
65972;SHT31;52726;48.852;9.152;2023-04-01T03:06:18;8.12;81.40
65972;SHT31;52726;48.852;9.152;2023-04-01T03:08:44;8.12;81.62
65972;SHT31;52726;48.852;9.152;2023-04-01T03:11:10;8.13;81.42
65972;SHT31;52726;48.852;9.152;2023-04-01T03:13:36;8.13;81.26
65972;SHT31;52726;48.852;9.152;2023-04-01T03:16:02;8.14;81.06
65972;SHT31;52726;48.852;9.152;2023-04-01T03:18:27;8.14;81.33
65972;SHT31;52726;48.852;9.152;2023-04-01T03:20:53;8.14;81.65
65972;SHT31;52726;48.852;9.152;2023-04-01T03:23:18;8.13;81.73
65972;SHT31;52726;48.852;9.152;2023-04-01T03:25:46;8.06;81.42
65972;SHT31;52726;48.852;9.152;2023-04-01T03:28:11;8.05;81.86
65972;SHT31;52726;48.852;9.152;2023-04-01T03:30:38;8.02;81.64
65972;SHT31;52726;48.852;9.152;2023-04-01T03:33:03;8.00;81.77
65972;SHT31;52726;48.852;9.152;2023-04-01T03:35:29;7.96;81.70
65972;SHT31;52726;48.852;9.152;2023-04-01T03:37:55;7.95;81.87
65972;SHT31;52726;48.852;9.152;2023-04-01T03:40:21;7.89;81.67
65972;SHT31;52726;48.852;9.152;2023-04-01T03:42:47;7.90;82.04
65972;SHT31;52726;48.852;9.152;2023-04-01T03:45:12;7.87;82.31
65972;SHT31;52726;48.852;9.152;2023-04-01T03:47:38;7.89;81.89
65972;SHT31;52726;48.852;9.152;2023-04-01T03:50:05;7.90;81.63
65972;SHT31;52726;48.852;9.152;2023-04-01T03:52:31;7.85;81.87
65972;SHT31;52726;48.852;9.152;2023-04-01T03:54:56;7.86;81.26
65972;SHT31;52726;48.852;9.152;2023-04-01T03:57:22;7.83;81.38
65972;SHT31;52726;48.852;9.152;2023-04-01T03:59:47;7.76;81.72
65972;SHT31;52726;48.852;9.152;2023-04-01T04:02:12;7.79;81.53
65972;SHT31;52726;48.852;9.152;2023-04-01T04:04:38;7.78;81.28
65972;SHT31;52726;48.852;9.152;2023-04-01T04:07:03;7.78;80.90
65972;SHT31;52726;48.852;9.152;2023-04-01T04:09:30;7.76;80.78
65972;SHT31;52726;48.852;9.152;2023-04-01T04:11:56;7.78;80.67
65972;SHT31;52726;48.852;9.152;2023-04-01T04:14:22;7.75;80.78
65972;SHT31;52726;48.852;9.152;2023-04-01T04:16:48;7.82;80.42
65972;SHT31;52726;48.852;9.152;2023-04-01T04:19:13;7.83;79.94
65972;SHT31;52726;48.852;9.152;2023-04-01T04:21:40;7.92;79.54
65972;SHT31;52726;48.852;9.152;2023-04-01T04:24:05;7.99;79.35
65972;SHT31;52726;48.852;9.152;2023-04-01T04:26:31;7.97;79.08
65972;SHT31;52726;48.852;9.152;2023-04-01T04:28:57;7.90;79.57
65972;SHT31;52726;48.852;9.152;2023-04-01T04:31:23;7.92;79.12
65972;SHT31;52726;48.852;9.152;2023-04-01T04:33:50;7.89;79.11
65972;SHT31;52726;48.852;9.152;2023-04-01T04:36:16;7.83;79.56
65972;SHT31;52726;48.852;9.152;2023-04-01T04:38:42;7.82;79.58
65972;SHT31;52726;48.852;9.152;2023-04-01T04:41:14;7.82;79.40
65972;SHT31;52726;48.852;9.152;2023-04-01T04:43:40;7.85;79.48
65972;SHT31;52726;48.852;9.152;2023-04-01T04:46:10;7.93;79.18
65972;SHT31;52726;48.852;9.152;2023-04-01T04:48:36;7.87;79.48
65972;SHT31;52726;48.852;9.152;2023-04-01T04:51:01;7.85;79.39
65972;SHT31;52726;48.852;9.152;2023-04-01T04:53:27;7.81;79.83
65972;SHT31;52726;48.852;9.152;2023-04-01T04:55:53;7.81;79.53
65972;SHT31;52726;48.852;9.152;2023-04-01T04:58:18;7.82;79.75
65972;SHT31;52726;48.852;9.152;2023-04-01T05:00:45;7.78;79.80
65972;SHT31;52726;48.852;9.152;2023-04-01T05:03:11;7.72;80.13
65972;SHT31;52726;48.852;9.152;2023-04-01T05:05:37;7.75;80.16
65972;SHT31;52726;48.852;9.152;2023-04-01T05:08:02;7.76;80.44
65972;SHT31;52726;48.852;9.152;2023-04-01T05:10:28;7.78;80.08
65972;SHT31;52726;48.852;9.152;2023-04-01T05:12:53;7.79;80.33
65972;SHT31;52726;48.852;9.152;2023-04-01T05:15:18;7.79;80.14
65972;SHT31;52726;48.852;9.152;2023-04-01T05:17:44;7.79;80.22
65972;SHT31;52726;48.852;9.152;2023-04-01T05:20:12;7.76;80.25
65972;SHT31;52726;48.852;9.152;2023-04-01T05:22:38;7.72;80.71
65972;SHT31;52726;48.852;9.152;2023-04-01T05:25:04;7.69;80.82
65972;SHT31;52726;48.852;9.152;2023-04-01T05:27:29;7.71;80.70
65972;SHT31;52726;48.852;9.152;2023-04-01T05:29:55;7.74;80.91
65972;SHT31;52726;48.852;9.152;2023-04-01T05:32:21;7.71;80.81
65972;SHT31;52726;48.852;9.152;2023-04-01T05:34:46;7.75;80.74
65972;SHT31;52726;48.852;9.152;2023-04-01T05:37:11;7.82;80.67
65972;SHT31;52726;48.852;9.152;2023-04-01T05:39:38;7.86;80.75
65972;SHT31;52726;48.852;9.152;2023-04-01T05:42:05;7.90;80.51
65972;SHT31;52726;48.852;9.152;2023-04-01T05:44:31;7.96;79.80
65972;SHT31;52726;48.852;9.152;2023-04-01T05:46:56;8.03;79.87
65972;SHT31;52726;48.852;9.152;2023-04-01T05:49:22;8.14;79.17
65972;SHT31;52726;48.852;9.152;2023-04-01T05:51:47;8.22;79.03
65972;SHT31;52726;48.852;9.152;2023-04-01T05:54:12;8.27;78.60
65972;SHT31;52726;48.852;9.152;2023-04-01T05:56:38;8.36;78.21
65972;SHT31;52726;48.852;9.152;2023-04-01T05:59:03;8.38;78.51
65972;SHT31;52726;48.852;9.152;2023-04-01T06:01:28;8.45;78.28
65972;SHT31;52726;48.852;9.152;2023-04-01T06:03:54;8.52;77.37
65972;SHT31;52726;48.852;9.152;2023-04-01T06:06:24;8.64;77.60
65972;SHT31;52726;48.852;9.152;2023-04-01T06:08:51;8.75;76.97
65972;SHT31;52726;48.852;9.152;2023-04-01T06:21:50;8.92;76.17
65972;SHT31;52726;48.852;9.152;2023-04-01T06:37:59;9.18;74.62
65972;SHT31;52726;48.852;9.152;2023-04-01T06:46:07;9.15;74.98
65972;SHT31;52726;48.852;9.152;2023-04-01T06:48:39;9.13;75.28
65972;SHT31;52726;48.852;9.152;2023-04-01T06:54:20;9.20;75.74
65972;SHT31;52726;48.852;9.152;2023-04-01T06:56:52;9.19;75.23
65972;SHT31;52726;48.852;9.152;2023-04-01T06:59:32;9.20;75.76
65972;SHT31;52726;48.852;9.152;2023-04-01T07:04:50;9.27;76.23
65972;SHT31;52726;48.852;9.152;2023-04-01T07:07:42;9.36;76.09
65972;SHT31;52726;48.852;9.152;2023-04-01T07:10:22;9.23;74.99
65972;SHT31;52726;48.852;9.152;2023-04-01T07:12:57;9.24;75.59
65972;SHT31;52726;48.852;9.152;2023-04-01T07:15:42;9.24;75.36
65972;SHT31;52726;48.852;9.152;2023-04-01T07:18:25;9.24;74.77
65972;SHT31;52726;48.852;9.152;2023-04-01T07:20:54;9.36;76.13
65972;SHT31;52726;48.852;9.152;2023-04-01T07:23:26;9.29;75.74
65972;SHT31;52726;48.852;9.152;2023-04-01T07:26:00;9.26;75.72
65972;SHT31;52726;48.852;9.152;2023-04-01T07:28:32;9.22;75.30
65972;SHT31;52726;48.852;9.152;2023-04-01T07:33:44;9.19;75.77
65972;SHT31;52726;48.852;9.152;2023-04-01T07:36:20;9.13;76.09
65972;SHT31;52726;48.852;9.152;2023-04-01T07:39:13;9.20;76.03
65972;SHT31;52726;48.852;9.152;2023-04-01T07:50:20;9.33;75.81
65972;SHT31;52726;48.852;9.152;2023-04-01T07:55:30;9.48;76.08
65972;SHT31;52726;48.852;9.152;2023-04-01T07:58:14;9.55;75.48
65972;SHT31;52726;48.852;9.152;2023-04-01T08:08:33;9.67;75.02
65972;SHT31;52726;48.852;9.152;2023-04-01T08:11:13;9.70;75.36
65972;SHT31;52726;48.852;9.152;2023-04-01T08:13:50;9.77;75.86
65972;SHT31;52726;48.852;9.152;2023-04-01T08:21:51;9.77;75.46
65972;SHT31;52726;48.852;9.152;2023-04-01T08:24:43;9.99;76.06
65972;SHT31;52726;48.852;9.152;2023-04-01T08:27:24;10.01;76.58
65972;SHT31;52726;48.852;9.152;2023-04-01T08:29:59;9.98;75.30
65972;SHT31;52726;48.852;9.152;2023-04-01T08:32:55;9.86;75.52
65972;SHT31;52726;48.852;9.152;2023-04-01T08:35:28;9.75;76.42
65972;SHT31;52726;48.852;9.152;2023-04-01T08:38:00;9.71;77.70
65972;SHT31;52726;48.852;9.152;2023-04-01T08:43:10;9.44;80.20
65972;SHT31;52726;48.852;9.152;2023-04-01T08:45:56;9.29;81.05
65972;SHT31;52726;48.852;9.152;2023-04-01T08:56:23;8.99;81.45
65972;SHT31;52726;48.852;9.152;2023-04-01T08:58:57;9.02;82.55
65972;SHT31;52726;48.852;9.152;2023-04-01T09:12:26;9.03;81.14
65972;SHT31;52726;48.852;9.152;2023-04-01T09:15:16;9.19;80.48
65972;SHT31;52726;48.852;9.152;2023-04-01T09:21:13;9.51;80.06
65972;SHT31;52726;48.852;9.152;2023-04-01T09:32:30;10.28;78.32
65972;SHT31;52726;48.852;9.152;2023-04-01T09:35:16;10.02;76.86
65972;SHT31;52726;48.852;9.152;2023-04-01T09:45:47;9.78;77.00
65972;SHT31;52726;48.852;9.152;2023-04-01T10:02:21;9.71;75.08
65972;SHT31;52726;48.852;9.152;2023-04-01T10:12:55;9.86;74.33
65972;SHT31;52726;48.852;9.152;2023-04-01T10:21:06;9.99;73.14
65972;SHT31;52726;48.852;9.152;2023-04-01T10:38:14;10.19;74.31
65972;SHT31;52726;48.852;9.152;2023-04-01T10:41:31;10.09;74.43
65972;SHT31;52726;48.852;9.152;2023-04-01T10:50:11;10.02;74.09
65972;SHT31;52726;48.852;9.152;2023-04-01T11:01:28;10.08;73.09
65972;SHT31;52726;48.852;9.152;2023-04-01T11:22:09;10.59;71.35
65972;SHT31;52726;48.852;9.152;2023-04-01T11:30:16;10.71;70.90
65972;SHT31;52726;48.852;9.152;2023-04-01T11:33:04;10.81;71.73
65972;SHT31;52726;48.852;9.152;2023-04-01T11:38:36;11.08;70.76
65972;SHT31;52726;48.852;9.152;2023-04-01T11:55:15;11.28;71.19
65972;SHT31;52726;48.852;9.152;2023-04-01T12:00:50;11.05;71.19
65972;SHT31;52726;48.852;9.152;2023-04-01T12:06:05;10.99;70.80
65972;SHT31;52726;48.852;9.152;2023-04-01T12:14:27;10.99;70.92
65972;SHT31;52726;48.852;9.152;2023-04-01T12:19:36;11.09;70.14
65972;SHT31;52726;48.852;9.152;2023-04-01T12:24:59;11.11;70.61
65972;SHT31;52726;48.852;9.152;2023-04-01T12:53:13;11.29;70.03
65972;SHT31;52726;48.852;9.152;2023-04-01T12:55:45;11.09;70.06
65972;SHT31;52726;48.852;9.152;2023-04-01T13:01:37;11.08;69.84
65972;SHT31;52726;48.852;9.152;2023-04-01T13:09:45;10.91;70.10
65972;SHT31;52726;48.852;9.152;2023-04-01T13:29:50;10.95;71.81
65972;SHT31;52726;48.852;9.152;2023-04-01T13:38:06;10.84;71.66
65972;SHT31;52726;48.852;9.152;2023-04-01T13:43:29;10.80;72.13
65972;SHT31;52726;48.852;9.152;2023-04-01T13:56:42;10.81;72.41
65972;SHT31;52726;48.852;9.152;2023-04-01T13:59:21;10.68;72.08
65972;SHT31;52726;48.852;9.152;2023-04-01T14:02:28;10.63;72.34
65972;SHT31;52726;48.852;9.152;2023-04-01T14:22:28;10.82;73.27
65972;SHT31;52726;48.852;9.152;2023-04-01T14:25:23;10.77;74.22
65972;SHT31;52726;48.852;9.152;2023-04-01T14:28:08;10.54;74.54
65972;SHT31;52726;48.852;9.152;2023-04-01T14:41:48;10.30;77.33
65972;SHT31;52726;48.852;9.152;2023-04-01T14:44:24;10.20;76.40
65972;SHT31;52726;48.852;9.152;2023-04-01T14:50:13;10.19;76.64
65972;SHT31;52726;48.852;9.152;2023-04-01T14:52:43;10.15;74.67
65972;SHT31;52726;48.852;9.152;2023-04-01T14:55:21;10.20;75.52
65972;SHT31;52726;48.852;9.152;2023-04-01T14:57:59;10.28;75.86
65972;SHT31;52726;48.852;9.152;2023-04-01T15:00:26;10.26;74.56
65972;SHT31;52726;48.852;9.152;2023-04-01T15:03:00;10.40;75.69
65972;SHT31;52726;48.852;9.152;2023-04-01T15:05:32;10.47;75.27
65972;SHT31;52726;48.852;9.152;2023-04-01T15:33:17;10.75;74.75
65972;SHT31;52726;48.852;9.152;2023-04-01T15:35:57;10.71;73.52
65972;SHT31;52726;48.852;9.152;2023-04-01T15:38:38;10.67;74.00
65972;SHT31;52726;48.852;9.152;2023-04-01T15:43:48;10.63;75.08
65972;SHT31;52726;48.852;9.152;2023-04-01T15:46:43;10.54;73.65
65972;SHT31;52726;48.852;9.152;2023-04-01T15:49:35;10.50;73.84
65972;SHT31;52726;48.852;9.152;2023-04-01T15:57:21;10.42;74.10
65972;SHT31;52726;48.852;9.152;2023-04-01T16:05:47;10.32;72.90
65972;SHT31;52726;48.852;9.152;2023-04-01T16:11:51;10.20;73.04
65972;SHT31;52726;48.852;9.152;2023-04-01T16:23:21;10.16;73.13
65972;SHT31;52726;48.852;9.152;2023-04-01T16:29:40;10.19;73.60
65972;SHT31;52726;48.852;9.152;2023-04-01T16:31:50;10.19;73.31
65972;SHT31;52726;48.852;9.152;2023-04-01T16:34:53;10.09;72.51
65972;SHT31;52726;48.852;9.152;2023-04-01T16:37:32;10.06;72.94
65972;SHT31;52726;48.852;9.152;2023-04-01T16:42:53;10.03;73.14
65972;SHT31;52726;48.852;9.152;2023-04-01T16:48:11;10.01;73.70
65972;SHT31;52726;48.852;9.152;2023-04-01T16:51:03;9.98;73.45
65972;SHT31;52726;48.852;9.152;2023-04-01T16:53:46;10.01;73.84
65972;SHT31;52726;48.852;9.152;2023-04-01T16:56:18;9.96;74.50
65972;SHT31;52726;48.852;9.152;2023-04-01T17:01:54;9.96;74.08
65972;SHT31;52726;48.852;9.152;2023-04-01T17:20:43;9.89;74.12
65972;SHT31;52726;48.852;9.152;2023-04-01T17:23:22;9.92;74.38
65972;SHT31;52726;48.852;9.152;2023-04-01T17:26:04;9.92;74.66
65972;SHT31;52726;48.852;9.152;2023-04-01T17:33:54;9.95;74.86
65972;SHT31;52726;48.852;9.152;2023-04-01T17:36:45;9.95;74.38
65972;SHT31;52726;48.852;9.152;2023-04-01T17:50:23;9.95;75.24
65972;SHT31;52726;48.852;9.152;2023-04-01T17:56:02;9.85;76.48
65972;SHT31;52726;48.852;9.152;2023-04-01T18:01:30;9.71;79.06
65972;SHT31;52726;48.852;9.152;2023-04-01T18:04:24;9.57;80.00
65972;SHT31;52726;48.852;9.152;2023-04-01T18:07:03;9.50;80.76
65972;SHT31;52726;48.852;9.152;2023-04-01T18:15:12;9.24;81.56
65972;SHT31;52726;48.852;9.152;2023-04-01T18:17:55;9.16;81.63
65972;SHT31;52726;48.852;9.152;2023-04-01T18:20:35;9.15;81.80
65972;SHT31;52726;48.852;9.152;2023-04-01T18:23:12;9.12;82.09
65972;SHT31;52726;48.852;9.152;2023-04-01T18:25:43;9.08;81.75
65972;SHT31;52726;48.852;9.152;2023-04-01T18:30:57;8.99;80.50
65972;SHT31;52726;48.852;9.152;2023-04-01T18:36:49;8.95;80.11
65972;SHT31;52726;48.852;9.152;2023-04-01T18:39:33;8.92;80.28
65972;SHT31;52726;48.852;9.152;2023-04-01T18:42:08;8.86;80.61
65972;SHT31;52726;48.852;9.152;2023-04-01T18:44:49;8.82;80.73
65972;SHT31;52726;48.852;9.152;2023-04-01T18:47:43;8.79;80.79
65972;SHT31;52726;48.852;9.152;2023-04-01T18:53:24;8.72;80.80
65972;SHT31;52726;48.852;9.152;2023-04-01T18:55:59;8.71;80.43
65972;SHT31;52726;48.852;9.152;2023-04-01T18:58:34;8.73;80.73
65972;SHT31;52726;48.852;9.152;2023-04-01T19:01:16;8.71;80.56
65972;SHT31;52726;48.852;9.152;2023-04-01T19:09:25;8.61;79.10
65972;SHT31;52726;48.852;9.152;2023-04-01T19:14:56;8.45;79.42
65972;SHT31;52726;48.852;9.152;2023-04-01T19:17:26;8.37;79.76
65972;SHT31;52726;48.852;9.152;2023-04-01T19:36:52;7.97;80.42
65972;SHT31;52726;48.852;9.152;2023-04-01T19:47:39;7.92;80.90
65972;SHT31;52726;48.852;9.152;2023-04-01T19:52:54;7.83;81.08
65972;SHT31;52726;48.852;9.152;2023-04-01T19:55:43;7.78;81.17
65972;SHT31;52726;48.852;9.152;2023-04-01T19:58:33;7.76;81.43
65972;SHT31;52726;48.852;9.152;2023-04-01T20:01:03;7.79;81.29
65972;SHT31;52726;48.852;9.152;2023-04-01T20:06:20;7.92;81.30
65972;SHT31;52726;48.852;9.152;2023-04-01T20:14:38;8.05;80.81
65972;SHT31;52726;48.852;9.152;2023-04-01T20:17:18;8.10;80.78
65972;SHT31;52726;48.852;9.152;2023-04-01T20:19:53;8.14;80.57
65972;SHT31;52726;48.852;9.152;2023-04-01T20:22:29;8.20;80.83
65972;SHT31;52726;48.852;9.152;2023-04-01T20:25:06;8.22;80.78
65972;SHT31;52726;48.852;9.152;2023-04-01T20:27:39;8.27;80.55
65972;SHT31;52726;48.852;9.152;2023-04-01T20:30:31;8.29;80.29
65972;SHT31;52726;48.852;9.152;2023-04-01T20:33:25;8.32;80.20
65972;SHT31;52726;48.852;9.152;2023-04-01T20:45:22;8.38;79.95
65972;SHT31;52726;48.852;9.152;2023-04-01T20:50:55;8.40;80.15
65972;SHT31;52726;48.852;9.152;2023-04-01T20:53:42;8.38;80.06
65972;SHT31;52726;48.852;9.152;2023-04-01T20:56:29;8.38;80.12
65972;SHT31;52726;48.852;9.152;2023-04-01T21:02:24;8.37;80.76
65972;SHT31;52726;48.852;9.152;2023-04-01T21:10:23;8.36;80.50
65972;SHT31;52726;48.852;9.152;2023-04-01T21:21:50;8.32;80.59
65972;SHT31;52726;48.852;9.152;2023-04-01T21:27:22;8.34;80.69
65972;SHT31;52726;48.852;9.152;2023-04-01T22:36:03;8.19;81.32
65972;SHT31;52726;48.852;9.152;2023-04-01T22:43:56;8.19;81.18
65972;SHT31;52726;48.852;9.152;2023-04-01T22:47:02;8.17;81.05
65972;SHT31;52726;48.852;9.152;2023-04-01T22:49:41;8.19;80.50
65972;SHT31;52726;48.852;9.152;2023-04-01T22:52:32;8.23;80.46
65972;SHT31;52726;48.852;9.152;2023-04-01T22:55:10;8.22;80.60
65972;SHT31;52726;48.852;9.152;2023-04-01T22:58:12;8.17;80.62
65972;SHT31;52726;48.852;9.152;2023-04-01T23:00:55;8.17;80.13
65972;SHT31;52726;48.852;9.152;2023-04-01T23:03:36;8.19;80.08
65972;SHT31;52726;48.852;9.152;2023-04-01T23:06:05;8.19;79.99
65972;SHT31;52726;48.852;9.152;2023-04-01T23:19:41;8.17;79.85
65972;SHT31;52726;48.852;9.152;2023-04-01T23:22:23;8.17;79.81
65972;SHT31;52726;48.852;9.152;2023-04-01T23:27:49;8.17;79.84
65972;SHT31;52726;48.852;9.152;2023-04-01T23:33:20;8.13;79.79
65972;SHT31;52726;48.852;9.152;2023-04-01T23:38:24;8.12;80.04
65972;SHT31;52726;48.852;9.152;2023-04-01T23:40:52;8.12;80.15
65972;SHT31;52726;48.852;9.152;2023-04-01T23:43:25;8.10;80.19
65972;SHT31;52726;48.852;9.152;2023-04-01T23:45:53;8.10;80.03
65972;SHT31;52726;48.852;9.152;2023-04-01T23:48:24;8.09;80.23
65972;SHT31;52726;48.852;9.152;2023-04-01T23:50:50;8.07;80.21
65972;SHT31;52726;48.852;9.152;2023-04-01T23:53:24;8.06;80.22
65972;SHT31;52726;48.852;9.152;2023-04-01T23:55:51;8.06;80.16
65972;SHT31;52726;48.852;9.152;2023-04-01T23:58:28;8.03;80.20
